Time;durP1;ratioP1;P1;durP2;ratioP2;P2;SDS_P1;SDS_P2;PMS_P1;PMS_P2;Temp;Humidity;BMP_temperature;BMP_pressure;BME280_temperature;BME280_humidity;BME280_pressure;Samples;Min_cycle;Max_cycle;Signal;HPM_P1;HPM_P2
2021/03/02 00:03:13;;;;;;;2.90;1.80;;;17.80;61.40;;;;;;10553862;27;20035;-57
2021/03/02 00:08:14;;;;;;;3.65;2.20;;;17.80;61.30;;;;;;10580394;28;20062;-57
2021/03/02 00:13:15;;;;;;;3.72;2.33;;;17.80;61.40;;;;;;10580885;27;20048;-57
2021/03/02 00:18:20;;;;;;;3.85;2.38;;;17.80;61.20;;;;;;10604413;28;20052;-57
2021/03/02 00:23:28;;;;;;;3.50;2.15;;;17.80;61.20;;;;;;10607424;28;20033;-56
2021/03/02 00:28:30;;;;;;;4.10;2.42;;;17.80;61.20;;;;;;10622304;28;20107;-56
2021/03/02 00:33:34;;;;;;;3.33;2.10;;;17.80;61.10;;;;;;10583239;28;20084;-56
2021/03/02 00:38:34;;;;;;;3.15;2.05;;;17.80;61.10;;;;;;10561791;28;20368;-56
2021/03/02 00:43:35;;;;;;;3.17;1.92;;;17.80;61.10;;;;;;10600757;28;20114;-55
2021/03/02 00:48:36;;;;;;;3.22;1.77;;;17.80;61.00;;;;;;10621883;28;20039;-56
2021/03/02 00:53:36;;;;;;;3.25;1.85;;;17.80;60.90;;;;;;10606757;27;20035;-56
2021/03/02 00:58:37;;;;;;;2.75;1.80;;;17.80;60.90;;;;;;10595971;27;20103;-56
2021/03/02 01:03:38;;;;;;;4.55;2.00;;;17.80;61.00;;;;;;10609377;27;20047;-56
2021/03/02 01:08:38;;;;;;;3.65;2.08;;;17.80;60.90;;;;;;10620980;27;20063;-56
2021/03/02 01:13:39;;;;;;;4.10;2.53;;;17.80;60.90;;;;;;10604741;27;20073;-56
2021/03/02 01:18:40;;;;;;;3.90;2.17;;;17.80;60.80;;;;;;10586926;28;20051;-58
2021/03/02 01:23:40;;;;;;;3.20;1.95;;;17.80;60.70;;;;;;10610895;27;20099;-57
2021/03/02 01:28:41;;;;;;;4.40;1.88;;;17.80;60.70;;;;;;10628717;27;20057;-57
2021/03/02 01:33:42;;;;;;;4.15;1.98;;;17.80;60.70;;;;;;10605029;27;20486;-57
2021/03/02 01:38:42;;;;;;;3.60;2.47;;;17.80;60.60;;;;;;10586317;28;20420;-57
2021/03/02 01:43:44;;;;;;;4.15;2.05;;;17.80;60.60;;;;;;10609547;27;20391;-58
2021/03/02 01:48:45;;;;;;;4.10;2.15;;;17.80;60.60;;;;;;10628297;27;20463;-56
2021/03/02 01:53:46;;;;;;;3.85;2.30;;;17.80;60.50;;;;;;10604079;27;20528;-58
2021/03/02 01:58:46;;;;;;;3.60;2.10;;;17.80;61.50;;;;;;10594914;27;20167;-57
2021/03/02 02:03:56;;;;;;;3.60;2.20;;;17.80;62.80;;;;;;10597810;27;20138;-57
2021/03/02 02:09:22;;;;;;;3.78;2.28;;;17.90;63.10;;;;;;10627253;27;20039;-56
2021/03/02 02:14:29;;;;;;;3.72;2.40;;;17.90;63.30;;;;;;10611283;27;20031;-57
2021/03/02 02:19:42;;;;;;;2.90;1.75;;;17.80;63.30;;;;;;10607828;27;20076;-57
2021/03/02 02:25:18;;;;;;;3.15;2.10;;;17.80;63.30;;;;;;10608717;27;20114;-57
2021/03/02 02:30:20;;;;;;;3.35;2.25;;;17.80;63.30;;;;;;10603385;27;20542;-57
2021/03/02 02:35:23;;;;;;;3.30;1.95;;;17.80;63.20;;;;;;10566063;28;20152;-57
2021/03/02 02:40:24;;;;;;;3.03;1.75;;;17.80;63.10;;;;;;10565772;28;20035;-57
2021/03/02 02:45:25;;;;;;;3.10;2.10;;;17.80;63.20;;;;;;10552279;27;20112;-57
2021/03/02 02:50:26;;;;;;;4.40;2.17;;;17.80;63.10;;;;;;10583326;28;20454;-57
2021/03/02 02:55:46;;;;;;;3.08;2.08;;;17.80;63.10;;;;;;10564878;28;20418;-57
2021/03/02 03:00:50;;;;;;;2.80;1.47;;;17.80;63.00;;;;;;10592227;27;20035;-56
2021/03/02 03:05:58;;;;;;;2.30;1.50;;;17.80;62.80;;;;;;10592661;27;20032;-57
2021/03/02 03:11:03;;;;;;;2.67;1.75;;;17.80;62.70;;;;;;10582242;28;20407;-56
2021/03/02 03:16:07;;;;;;;3.42;1.90;;;17.80;62.70;;;;;;10563504;28;20031;-56
2021/03/02 03:21:08;;;;;;;2.85;1.73;;;17.80;62.60;;;;;;10594821;27;20475;-57
2021/03/02 03:26:12;;;;;;;3.70;1.90;;;17.80;62.40;;;;;;10605872;27;20054;-57
2021/03/02 03:31:16;;;;;;;2.55;1.55;;;17.70;62.30;;;;;;10606077;27;20475;-57
2021/03/02 03:36:17;;;;;;;4.05;2.17;;;17.80;62.20;;;;;;10606041;27;20028;-57
2021/03/02 03:41:18;;;;;;;3.63;2.15;;;17.70;62.10;;;;;;10568680;28;20479;-57
2021/03/02 03:46:18;;;;;;;3.33;2.10;;;17.80;62.00;;;;;;10562973;28;20066;-57
2021/03/02 03:51:23;;;;;;;3.15;1.77;;;17.80;61.90;;;;;;10562868;28;20024;-57
2021/03/02 03:56:25;;;;;;;3.40;1.70;;;17.80;61.80;;;;;;10563177;28;20023;-56
2021/03/02 04:01:26;;;;;;;2.40;1.63;;;17.80;61.70;;;;;;10573370;27;20087;-57
2021/03/02 04:06:27;;;;;;;3.80;2.13;;;17.80;61.70;;;;;;10565874;28;20126;-57
2021/03/02 04:11:28;;;;;;;3.10;1.83;;;17.70;61.50;;;;;;10562077;28;20046;-57
2021/03/02 04:16:30;;;;;;;2.75;1.55;;;17.80;61.50;;;;;;10580831;28;20069;-57
2021/03/02 04:21:31;;;;;;;3.47;1.90;;;17.80;61.40;;;;;;10580194;28;20028;-57
2021/03/02 04:26:32;;;;;;;3.50;2.17;;;17.80;61.40;;;;;;10615995;27;20407;-56
2021/03/02 04:31:33;;;;;;;2.47;1.60;;;17.70;61.20;;;;;;10631288;27;20033;-56
2021/03/02 04:36:34;;;;;;;4.00;2.10;;;17.70;61.20;;;;;;10631178;27;20111;-57
2021/03/02 04:41:35;;;;;;;2.92;2.28;;;17.70;61.20;;;;;;10591646;27;20054;-57
2021/03/02 04:46:35;;;;;;;3.95;2.10;;;17.70;61.10;;;;;;10570032;28;20031;-57
2021/03/02 04:51:36;;;;;;;4.55;2.15;;;17.70;61.00;;;;;;10612775;27;20031;-56
2021/03/02 04:56:37;;;;;;;3.33;1.98;;;17.70;61.00;;;;;;10625079;27;20169;-56
2021/03/02 05:01:37;;;;;;;2.92;2.00;;;17.70;61.00;;;;;;10602798;27;20050;-56
2021/03/02 05:06:38;;;;;;;3.35;1.95;;;17.70;60.90;;;;;;10590954;27;20098;-56
2021/03/02 05:11:38;;;;;;;2.83;1.67;;;17.70;60.80;;;;;;10587418;28;20118;-57
2021/03/02 05:16:39;;;;;;;2.85;1.60;;;17.70;60.70;;;;;;10587083;28;20063;-57
2021/03/02 05:21:40;;;;;;;2.22;1.75;;;17.70;60.70;;;;;;10586956;28;20055;-56
2021/03/02 05:26:40;;;;;;;3.00;1.70;;;17.70;60.70;;;;;;10586593;28;20118;-56
2021/03/02 05:31:41;;;;;;;3.47;2.05;;;17.70;60.60;;;;;;10586432;28;20028;-56
2021/03/02 05:36:42;;;;;;;3.08;1.95;;;17.70;60.50;;;;;;10589072;27;20025;-57
2021/03/02 05:41:43;;;;;;;3.08;2.00;;;17.70;60.50;;;;;;10602250;27;20127;-56
2021/03/02 05:46:44;;;;;;;3.40;2.08;;;17.70;60.50;;;;;;10586139;28;20357;-56
2021/03/02 05:51:45;;;;;;;3.50;1.95;;;17.60;60.50;;;;;;10585749;28;20039;-55
2021/03/02 05:56:45;;;;;;;2.40;1.65;;;17.60;60.50;;;;;;10586405;27;20439;-57
2021/03/02 06:01:46;;;;;;;3.47;1.88;;;17.60;60.40;;;;;;10613708;27;20037;-57
2021/03/02 06:06:47;;;;;;;3.70;2.15;;;17.60;60.30;;;;;;10609723;27;20110;-57
2021/03/02 06:11:48;;;;;;;2.55;1.80;;;17.60;60.30;;;;;;10588189;27;20028;-56
2021/03/02 06:16:51;;;;;;;1.92;1.27;;;17.70;60.40;;;;;;10583980;27;20027;-57
2021/03/02 06:21:52;;;;;;;5.68;2.30;;;17.70;60.90;;;;;;10599484;27;20062;-57
2021/03/02 06:27:12;;;;;;;4.13;2.05;;;17.70;61.10;;;;;;10579930;27;20126;-57
2021/03/02 06:32:13;;;;;;;3.15;1.92;;;17.70;61.80;;;;;;10605123;27;20027;-58
2021/03/02 06:37:14;;;;;;;8.65;2.67;;;17.70;62.00;;;;;;10609011;27;20041;-58
2021/03/02 06:42:20;;;;;;;6.47;2.55;;;17.70;62.40;;;;;;10592586;27;20035;-58
2021/03/02 06:47:31;;;;;;;12.70;2.10;;;17.70;62.20;;;;;;10608117;27;20439;-57
2021/03/02 06:52:37;;;;;;;8.32;2.13;;;17.80;61.90;;;;;;10614831;27;20131;-57
2021/03/02 06:57:37;;;;;;;15.98;5.57;;;17.80;61.60;;;;;;10583281;28;20357;-57
2021/03/02 07:02:46;;;;;;;13.88;3.38;;;17.70;61.40;;;;;;10608372;27;20056;-56
2021/03/02 07:07:55;;;;;;;10.48;2.95;;;17.70;61.10;;;;;;10600554;27;20534;-57
2021/03/02 07:12:56;;;;;;;8.00;3.35;;;17.70;60.80;;;;;;10605790;27;20035;-57
2021/03/02 07:17:57;;;;;;;9.55;3.03;;;17.70;60.70;;;;;;10580049;27;20023;-58
2021/03/02 07:23:00;;;;;;;10.07;4.00;;;17.70;60.40;;;;;;10598439;27;20118;-55
2021/03/02 07:28:02;;;;;;;8.98;2.97;;;17.70;60.30;;;;;;10595289;27;20067;-57
2021/03/02 07:33:03;;;;;;;7.45;2.60;;;17.70;60.30;;;;;;10572618;27;20042;-57
2021/03/02 07:38:20;;;;;;;6.65;2.80;;;17.70;60.40;;;;;;10602683;27;20023;-58
2021/03/02 07:43:38;;;;;;;4.75;2.70;;;17.70;60.10;;;;;;10575290;28;20027;-57
2021/03/02 07:48:38;;;;;;;7.20;2.97;;;17.70;60.00;;;;;;10583110;27;20035;-57
2021/03/02 07:53:40;;;;;;;5.25;3.10;;;17.70;59.90;;;;;;10589588;27;20130;-57
2021/03/02 07:58:41;;;;;;;4.85;2.90;;;17.70;59.80;;;;;;10562291;27;20452;-57
2021/03/02 08:03:42;;;;;;;4.95;3.13;;;17.60;59.70;;;;;;10600258;27;20475;-58
2021/03/02 08:08:43;;;;;;;4.85;2.85;;;17.60;59.80;;;;;;10587464;27;20030;-57
2021/03/02 08:13:44;;;;;;;6.18;2.75;;;17.60;59.80;;;;;;10603962;27;20040;-57
2021/03/02 08:18:45;;;;;;;7.85;3.80;;;17.60;59.80;;;;;;10582448;28;20025;-57
2021/03/02 08:23:59;;;;;;;5.55;2.50;;;17.60;59.80;;;;;;10555919;28;20032;-57
2021/03/02 08:29:18;;;;;;;6.05;2.83;;;17.60;59.90;;;;;;10543630;28;20571;-56
2021/03/02 08:34:19;;;;;;;6.00;2.70;;;17.60;60.10;;;;;;10601539;28;20054;-57
2021/03/02 08:39:21;;;;;;;4.07;1.90;;;17.60;60.30;;;;;;10587366;28;20521;-56
2021/03/02 08:44:24;;;;;;;3.00;2.40;;;17.50;60.40;;;;;;10573473;28;20059;-57
2021/03/02 08:49:25;;;;;;;3.33;2.63;;;17.40;61.10;;;;;;10573559;28;20028;-57
2021/03/02 08:54:26;;;;;;;5.47;2.45;;;17.40;61.50;;;;;;10573270;28;20089;-57
2021/03/02 08:59:32;;;;;;;8.05;2.83;;;17.30;61.60;;;;;;10588831;28;20019;-57
2021/03/02 09:04:33;;;;;;;3.75;2.50;;;17.30;61.70;;;;;;10594780;28;20364;-57
2021/03/02 09:09:33;;;;;;;6.10;2.33;;;17.30;61.70;;;;;;10574605;28;20031;-55
2021/03/02 09:14:34;;;;;;;3.90;2.35;;;17.30;61.70;;;;;;10569153;28;20036;-58
2021/03/02 09:19:41;;;;;;;4.78;2.97;;;17.30;61.70;;;;;;10581087;27;20053;-57
2021/03/02 09:24:55;;;;;;;3.45;1.90;;;17.30;61.80;;;;;;10580768;28;20043;-57
2021/03/02 09:29:56;;;;;;;4.20;1.80;;;17.30;61.80;;;;;;10580227;28;20071;-57
2021/03/02 09:35:07;;;;;;;3.70;2.53;;;17.30;61.80;;;;;;10588178;27;20028;-54
2021/03/02 09:40:15;;;;;;;4.55;2.10;;;17.30;61.70;;;;;;10570296;27;20019;-56
2021/03/02 09:45:17;;;;;;;4.53;2.47;;;17.30;61.70;;;;;;10619161;27;20127;-55
2021/03/02 09:50:19;;;;;;;3.47;2.30;;;17.30;61.70;;;;;;10621867;27;20486;-55
2021/03/02 09:55:21;;;;;;;4.97;2.67;;;17.30;61.70;;;;;;10621721;27;20467;-57
2021/03/02 10:00:44;;;;;;;3.33;2.17;;;17.30;61.60;;;;;;10592962;27;20031;-55
2021/03/02 10:05:57;;;;;;;4.43;2.10;;;17.30;61.60;;;;;;10582439;27;20031;-56
2021/03/02 10:11:10;;;;;;;3.38;2.10;;;17.40;61.60;;;;;;10578642;28;20103;-57
2021/03/02 10:16:25;;;;;;;4.90;2.40;;;17.30;61.60;;;;;;10578417;28;20040;-56
2021/03/02 10:21:41;;;;;;;3.45;2.22;;;17.40;61.60;;;;;;10595980;27;20031;-57
2021/03/02 10:26:41;;;;;;;3.53;2.15;;;17.40;61.60;;;;;;10619874;27;20047;-56
2021/03/02 10:31:42;;;;;;;3.15;2.13;;;17.40;61.60;;;;;;10578273;27;20043;-56
2021/03/02 10:36:45;;;;;;;5.30;2.20;;;17.40;61.70;;;;;;10620024;27;20368;-56
2021/03/02 10:41:46;;;;;;;4.47;2.45;;;17.40;61.70;;;;;;10601623;27;20039;-56
2021/03/02 10:46:47;;;;;;;3.45;1.85;;;17.40;61.60;;;;;;10619824;27;20038;-55
2021/03/02 10:51:51;;;;;;;3.53;2.58;;;17.40;61.70;;;;;;10619403;27;20038;-56
2021/03/02 10:56:51;;;;;;;2.70;1.80;;;17.40;62.30;;;;;;10593780;27;20087;-57
2021/03/02 11:01:52;;;;;;;2.90;1.70;;;17.40;62.30;;;;;;10576600;28;20539;-57
2021/03/02 11:06:53;;;;;;;4.20;1.98;;;17.50;61.70;;;;;;10580277;27;20034;-57
2021/03/02 11:11:54;;;;;;;2.95;2.17;;;17.50;61.70;;;;;;10576292;28;20111;-56
2021/03/02 11:16:54;;;;;;;2.58;1.70;;;17.50;61.70;;;;;;10576065;28;20589;-57
2021/03/02 11:21:55;;;;;;;2.92;1.83;;;17.50;61.70;;;;;;10579959;27;20050;-57
2021/03/02 11:26:55;;;;;;;4.18;2.22;;;17.50;61.70;;;;;;10617830;27;20151;-56
2021/03/02 11:31:56;;;;;;;3.03;1.63;;;17.50;61.60;;;;;;10614490;27;20107;-56
2021/03/02 11:36:57;;;;;;;4.10;2.03;;;17.50;61.60;;;;;;10584608;27;20102;-56
2021/03/02 11:41:57;;;;;;;2.60;1.80;;;17.60;61.70;;;;;;10571066;27;20118;-57
2021/03/02 11:46:58;;;;;;;3.10;2.30;;;17.60;61.60;;;;;;10617137;27;20498;-55
2021/03/02 11:51:59;;;;;;;3.08;2.22;;;17.60;61.60;;;;;;10616519;27;20075;-57
2021/03/02 11:56:59;;;;;;;3.95;2.33;;;17.60;61.70;;;;;;10591899;27;20055;-56
2021/03/02 12:02:00;;;;;;;2.33;1.58;;;17.60;61.50;;;;;;10584917;27;20114;-57
2021/03/02 12:07:01;;;;;;;3.72;2.30;;;17.60;61.40;;;;;;10607896;27;20114;-57
2021/03/02 12:12:03;;;;;;;3.05;2.17;;;17.60;61.60;;;;;;10594111;27;20341;-56
2021/03/02 12:17:04;;;;;;;3.28;1.80;;;17.70;61.80;;;;;;10619543;27;20026;-57
2021/03/02 12:22:05;;;;;;;4.18;2.28;;;17.70;62.10;;;;;;10592913;27;20384;-57
2021/03/02 12:27:06;;;;;;;4.15;2.67;;;17.70;62.20;;;;;;10578084;28;20051;-56
2021/03/02 12:32:07;;;;;;;3.35;2.17;;;17.70;62.30;;;;;;10578385;28;20036;-57
2021/03/02 12:37:08;;;;;;;3.28;2.08;;;17.70;62.30;;;;;;10559559;28;20032;-57
2021/03/02 12:42:09;;;;;;;3.75;2.50;;;17.70;62.40;;;;;;10590294;28;20584;-57
2021/03/02 12:47:10;;;;;;;3.33;2.10;;;17.70;62.40;;;;;;10622073;27;20042;-57
2021/03/02 12:52:11;;;;;;;3.72;1.90;;;17.70;62.40;;;;;;10605586;27;20039;-55
2021/03/02 12:57:11;;;;;;;3.75;1.95;;;17.80;62.50;;;;;;10614806;27;20383;-56
2021/03/02 13:02:13;;;;;;;6.43;2.17;;;17.80;62.30;;;;;;10604629;27;20039;-57
2021/03/02 13:07:17;;;;;;;3.78;2.17;;;17.80;62.50;;;;;;10586901;27;20536;-56
2021/03/02 13:12:21;;;;;;;4.07;2.22;;;17.80;62.50;;;;;;10609940;27;20031;-57
2021/03/02 13:17:22;;;;;;;6.95;2.38;;;17.80;62.30;;;;;;10599099;27;20019;-57
2021/03/02 13:22:23;;;;;;;5.68;2.10;;;17.80;62.30;;;;;;10603967;27;20401;-57
2021/03/02 13:27:24;;;;;;;6.20;2.72;;;17.80;62.30;;;;;;10596777;27;20051;-56
2021/03/02 13:33:00;;;;;;;6.65;2.08;;;17.80;62.50;;;;;;10608481;27;20035;-57
2021/03/02 13:38:03;;;;;;;4.00;2.10;;;17.80;62.50;;;;;;10568550;28;20044;-56
2021/03/02 13:43:07;;;;;;;4.22;2.40;;;17.90;62.30;;;;;;10581104;27;20054;-56
2021/03/02 13:48:08;;;;;;;3.40;2.35;;;17.90;62.40;;;;;;10615472;27;20034;-55
2021/03/02 13:53:10;;;;;;;4.88;2.10;;;17.80;62.40;;;;;;10600689;27;20423;-56
2021/03/02 13:58:11;;;;;;;3.75;1.95;;;17.80;62.40;;;;;;10581888;27;20031;-57
2021/03/02 14:03:17;;;;;;;4.00;2.17;;;17.90;62.50;;;;;;10579320;27;20111;-56
2021/03/02 14:08:21;;;;;;;3.95;2.20;;;17.90;62.50;;;;;;10616428;27;20428;-57
2021/03/02 14:13:26;;;;;;;2.95;2.00;;;17.90;62.50;;;;;;10619256;27;20034;-57
2021/03/02 14:18:27;;;;;;;3.53;1.88;;;17.90;62.50;;;;;;10602315;27;20023;-56
2021/03/02 14:23:30;;;;;;;4.18;2.13;;;17.90;62.40;;;;;;10603420;27;20398;-57
2021/03/02 14:28:31;;;;;;;4.50;2.45;;;17.90;62.40;;;;;;10620063;27;20050;-56
2021/03/02 14:33:32;;;;;;;3.17;2.05;;;17.90;62.30;;;;;;10615772;27;20058;-57
2021/03/02 14:38:33;;;;;;;3.10;2.20;;;17.90;62.50;;;;;;10593657;27;20032;-56
2021/03/02 14:43:37;;;;;;;3.83;2.47;;;17.90;62.40;;;;;;10615417;27;20487;-56
2021/03/02 14:48:45;;;;;;;3.13;2.58;;;17.90;62.40;;;;;;10577344;28;20114;-57
2021/03/02 14:53:52;;;;;;;2.78;1.77;;;17.90;62.40;;;;;;10559983;27;20574;-57
2021/03/02 14:58:54;;;;;;;4.43;1.98;;;17.90;62.40;;;;;;10579983;27;20088;-56
2021/03/02 15:03:55;;;;;;;3.13;1.75;;;17.90;62.40;;;;;;10573418;27;20041;-56
2021/03/02 15:08:57;;;;;;;3.13;2.13;;;17.90;62.40;;;;;;10599114;27;20444;-56
2021/03/02 15:13:59;;;;;;;3.55;2.20;;;17.90;62.40;;;;;;10576132;28;20027;-57
2021/03/02 15:19:01;;;;;;;4.00;1.77;;;17.90;62.50;;;;;;10575852;28;20027;-57
2021/03/02 15:24:03;;;;;;;5.60;2.55;;;17.90;62.50;;;;;;10564434;27;20038;-56
2021/03/02 15:29:04;;;;;;;3.10;1.70;;;17.90;63.10;;;;;;10573048;28;20515;-57
2021/03/02 15:34:07;;;;;;;3.15;1.85;;;17.80;62.50;;;;;;10547944;28;20037;-57
2021/03/02 15:39:08;;;;;;;5.00;2.08;;;17.80;62.60;;;;;;10566279;27;20020;-55
2021/03/02 15:44:10;;;;;;;3.13;1.90;;;17.80;62.50;;;;;;10588998;27;20035;-56
2021/03/02 15:49:12;;;;;;;3.67;2.55;;;17.70;61.90;;;;;;10601674;27;20762;-56
2021/03/02 15:54:14;;;;;;;6.05;3.05;;;17.70;61.20;;;;;;10615141;27;20050;-57
2021/03/02 15:59:15;;;;;;;14.63;3.65;;;17.70;60.80;;;;;;10598606;27;20080;-57
2021/03/02 16:04:22;;;;;;;12.23;5.18;;;17.70;60.80;;;;;;10589667;27;20100;-57
2021/03/02 16:09:32;;;;;;;7.53;3.75;;;17.60;60.30;;;;;;10581880;27;20038;-58
2021/03/02 16:14:34;;;;;;;7.75;4.53;;;17.60;60.10;;;;;;10597961;27;20578;-59
2021/03/02 16:19:39;;;;;;;7.40;4.93;;;17.60;60.40;;;;;;10573925;28;20067;-58
2021/03/02 16:24:40;;;;;;;11.43;5.53;;;17.60;60.40;;;;;;10574174;27;20027;-58
2021/03/02 16:29:41;;;;;;;7.30;4.90;;;17.60;59.80;;;;;;10609099;27;20047;-58
2021/03/02 16:34:42;;;;;;;7.97;5.28;;;17.60;59.50;;;;;;10593423;28;20027;-58
2021/03/02 16:39:43;;;;;;;9.52;6.28;;;17.70;59.30;;;;;;10552845;28;20038;-58
2021/03/02 16:44:45;;;;;;;8.07;5.72;;;17.80;58.90;;;;;;10573412;28;20035;-59
2021/03/02 16:49:57;;;;;;;9.88;5.60;;;17.80;59.00;;;;;;10597504;28;20451;-58
2021/03/02 16:55:02;;;;;;;13.00;6.10;;;17.80;58.60;;;;;;10613139;28;20035;-59
2021/03/02 17:00:08;;;;;;;10.65;6.35;;;17.80;58.50;;;;;;10593721;28;20042;-58
2021/03/02 17:05:11;;;;;;;14.88;9.15;;;17.80;58.40;;;;;;10594917;28;20039;-58
2021/03/02 17:10:20;;;;;;;17.17;9.10;;;17.80;62.00;;;;;;10589202;28;20031;-59
2021/03/02 17:15:21;;;;;;;20.02;8.60;;;17.90;63.50;;;;;;10588416;28;20115;-57
2021/03/02 17:20:22;;;;;;;18.80;8.45;;;17.90;64.10;;;;;;10579747;28;20033;-57
2021/03/02 17:25:23;;;;;;;27.75;10.05;;;17.90;64.00;;;;;;10567238;28;20043;-57
2021/03/02 17:30:24;;;;;;;10.80;6.95;;;17.90;63.50;;;;;;10621984;28;20063;-59
2021/03/02 17:35:25;;;;;;;13.82;7.93;;;17.90;63.00;;;;;;10615817;27;20114;-57
2021/03/02 17:40:26;;;;;;;21.15;8.00;;;18.00;64.10;;;;;;10608775;27;20023;-56
2021/03/02 17:45:27;;;;;;;16.90;6.93;;;18.00;64.10;;;;;;10620112;27;20410;-57
2021/03/02 17:50:28;;;;;;;24.10;9.18;;;18.00;64.30;;;;;;10594676;27;20053;-56
2021/03/02 17:55:28;;;;;;;19.48;7.30;;;17.90;63.60;;;;;;10605842;27;20035;-56
2021/03/02 18:00:29;;;;;;;22.90;6.97;;;17.80;63.80;;;;;;10603218;27;20193;-56
2021/03/02 18:05:30;;;;;;;20.42;6.45;;;17.80;64.00;;;;;;10599861;27;20050;-56
2021/03/02 18:10:30;;;;;;;13.93;6.47;;;17.70;63.70;;;;;;10587305;27;20023;-56
2021/03/02 18:15:31;;;;;;;16.75;6.70;;;17.70;64.30;;;;;;10596014;27;20059;-57
2021/03/02 18:20:32;;;;;;;10.90;7.15;;;17.60;64.30;;;;;;10599506;27;20045;-58
2021/03/02 18:25:33;;;;;;;13.10;7.03;;;17.70;64.40;;;;;;10595887;27;20067;-56
2021/03/02 18:30:33;;;;;;;11.57;6.50;;;17.70;64.60;;;;;;10593024;27;20085;-57
2021/03/02 18:35:34;;;;;;;12.32;6.55;;;17.70;65.40;;;;;;10604051;27;20151;-56
2021/03/02 18:40:35;;;;;;;12.25;6.97;;;17.70;66.00;;;;;;10584629;28;20074;-57
2021/03/02 18:45:35;;;;;;;12.23;6.78;;;17.70;66.40;;;;;;10594370;27;20427;-57
2021/03/02 18:50:36;;;;;;;12.80;6.22;;;17.70;66.80;;;;;;10609161;27;20063;-57
2021/03/02 18:55:37;;;;;;;14.75;6.50;;;17.70;66.50;;;;;;10596955;27;20080;-58
2021/03/02 19:00:38;;;;;;;10.05;6.97;;;17.60;66.00;;;;;;10584808;27;20031;-59
2021/03/02 19:05:38;;;;;;;9.57;6.35;;;17.60;66.30;;;;;;10559400;27;20485;-57
2021/03/02 19:10:39;;;;;;;8.55;5.35;;;17.60;66.00;;;;;;10604887;27;20065;-59
2021/03/02 19:15:40;;;;;;;12.88;6.45;;;17.60;65.60;;;;;;10607988;27;20387;-59
2021/03/02 19:20:41;;;;;;;12.65;5.57;;;17.60;65.90;;;;;;10607331;27;20098;-58
2021/03/02 19:25:41;;;;;;;12.10;5.80;;;17.60;66.30;;;;;;10599196;27;20433;-58
2021/03/02 19:30:42;;;;;;;11.95;6.55;;;17.60;66.50;;;;;;10574660;27;20126;-57
2021/03/02 19:35:43;;;;;;;15.38;5.70;;;17.60;66.60;;;;;;10586795;27;20163;-59
2021/03/02 19:40:44;;;;;;;9.88;5.20;;;17.60;66.60;;;;;;10595453;27;20117;-59
2021/03/02 19:45:45;;;;;;;10.18;5.45;;;17.60;66.50;;;;;;10599346;27;20031;-57
2021/03/02 19:50:46;;;;;;;9.15;5.32;;;17.50;66.30;;;;;;10595000;27;20371;-59
2021/03/02 19:55:46;;;;;;;11.82;4.85;;;17.50;66.10;;;;;;10593890;27;20035;-57
2021/03/02 20:00:47;;;;;;;9.90;4.70;;;17.50;65.20;;;;;;10596547;27;20391;-58
2021/03/02 20:05:49;;;;;;;8.77;4.35;;;17.40;65.30;;;;;;10611661;27;20110;-58
2021/03/02 20:10:50;;;;;;;9.00;4.90;;;17.40;65.40;;;;;;10597855;27;20019;-58
2021/03/02 20:15:51;;;;;;;10.77;5.50;;;17.40;66.10;;;;;;10612665;27;20050;-58
2021/03/02 20:20:51;;;;;;;9.70;5.47;;;17.40;65.40;;;;;;10568555;27;20171;-58
2021/03/02 20:25:52;;;;;;;11.13;4.78;;;17.40;65.40;;;;;;10583002;27;20062;-58
2021/03/02 20:30:53;;;;;;;9.07;4.63;;;17.40;65.60;;;;;;10594900;27;20171;-58
2021/03/02 20:35:54;;;;;;;8.30;4.80;;;17.40;65.60;;;;;;10591530;28;20118;-58
2021/03/02 20:40:54;;;;;;;7.18;4.57;;;17.40;65.20;;;;;;10589411;28;20063;-58
2021/03/02 20:45:55;;;;;;;7.63;4.75;;;17.40;65.00;;;;;;10602289;28;20562;-58
2021/03/02 20:50:56;;;;;;;7.47;4.78;;;17.40;65.00;;;;;;10621730;28;20023;-58
2021/03/02 20:55:57;;;;;;;5.65;4.10;;;17.40;65.10;;;;;;10587583;28;20028;-58
2021/03/02 21:00:57;;;;;;;7.95;5.55;;;17.40;64.90;;;;;;10562002;28;20161;-59
2021/03/02 21:05:58;;;;;;;6.07;4.25;;;17.40;64.70;;;;;;10572119;28;20058;-59
2021/03/02 21:10:59;;;;;;;10.57;5.32;;;17.40;64.50;;;;;;10568549;28;20542;-59
2021/03/02 21:15:59;;;;;;;6.75;3.92;;;17.50;64.40;;;;;;10605411;27;20106;-59
2021/03/02 21:21:00;;;;;;;8.75;4.53;;;17.50;64.20;;;;;;10629695;27;20058;-58
2021/03/02 21:26:01;;;;;;;12.18;4.53;;;17.50;64.10;;;;;;10610561;27;20150;-59
2021/03/02 21:31:02;;;;;;;5.90;3.97;;;17.50;63.90;;;;;;10587606;28;20020;-60
2021/03/02 21:36:04;;;;;;;5.82;3.42;;;17.50;63.60;;;;;;10606424;27;20387;-59
2021/03/02 21:41:04;;;;;;;6.57;4.10;;;17.60;63.50;;;;;;10616024;27;20027;-59
2021/03/02 21:46:05;;;;;;;5.80;3.47;;;17.60;63.40;;;;;;10610330;27;20495;-59
2021/03/02 21:51:06;;;;;;;7.05;3.83;;;17.60;63.30;;;;;;10586702;28;20471;-59
2021/03/02 21:56:06;;;;;;;6.93;4.22;;;17.60;63.10;;;;;;10605317;27;20030;-59
2021/03/02 22:01:08;;;;;;;6.95;4.03;;;17.60;62.90;;;;;;10628520;27;20062;-59
2021/03/02 22:06:08;;;;;;;6.28;4.20;;;17.60;62.90;;;;;;10585739;27;20031;-58
2021/03/02 22:11:10;;;;;;;5.32;3.40;;;17.70;62.80;;;;;;10620344;27;20034;-59
2021/03/02 22:16:10;;;;;;;6.25;3.53;;;17.70;62.70;;;;;;10610178;27;20031;-59
2021/03/02 22:21:11;;;;;;;4.97;3.25;;;17.70;62.60;;;;;;10626688;27;20027;-59
2021/03/02 22:26:12;;;;;;;7.72;3.83;;;17.70;62.60;;;;;;10608285;27;20083;-59
2021/03/02 22:31:13;;;;;;;5.00;3.55;;;17.70;62.50;;;;;;10585071;28;20027;-59
2021/03/02 22:36:13;;;;;;;4.93;3.38;;;17.70;62.50;;;;;;10603802;27;20034;-59
2021/03/02 22:41:15;;;;;;;5.35;3.15;;;17.60;62.40;;;;;;10625019;27;20042;-59
2021/03/02 22:46:16;;;;;;;5.70;3.67;;;17.70;62.40;;;;;;10607930;27;20043;-59
2021/03/02 22:51:17;;;;;;;6.68;3.35;;;17.60;62.30;;;;;;10565969;28;20024;-58
2021/03/02 22:56:17;;;;;;;5.68;3.42;;;17.70;62.30;;;;;;10602388;27;20387;-59
2021/03/02 23:01:18;;;;;;;5.28;3.65;;;17.60;62.20;;;;;;10615695;27;20080;-59
2021/03/02 23:06:19;;;;;;;4.75;3.72;;;17.60;62.10;;;;;;10610009;27;20505;-59
2021/03/02 23:11:19;;;;;;;6.93;3.40;;;17.60;62.10;;;;;;10570658;27;20126;-59
2021/03/02 23:16:20;;;;;;;4.97;3.53;;;17.70;62.00;;;;;;10604740;27;20031;-59
2021/03/02 23:21:21;;;;;;;5.43;3.90;;;17.70;62.00;;;;;;10582975;28;20096;-59
2021/03/02 23:26:22;;;;;;;4.13;2.75;;;17.70;62.00;;;;;;10602980;27;20071;-59
2021/03/02 23:31:27;;;;;;;5.60;3.28;;;17.70;61.80;;;;;;10606934;27;20495;-59
2021/03/02 23:36:28;;;;;;;4.90;3.10;;;17.70;61.80;;;;;;10608808;27;20098;-59
2021/03/02 23:41:29;;;;;;;4.82;3.55;;;17.70;61.70;;;;;;10594332;27;20484;-60
2021/03/02 23:46:29;;;;;;;4.38;3.10;;;17.70;61.80;;;;;;10583177;27;20114;-59
2021/03/02 23:51:30;;;;;;;4.85;3.55;;;17.60;61.70;;;;;;10563285;28;20039;-59
2021/03/02 23:56:31;;;;;;;4.82;3.50;;;17.70;61.70;;;;;;10602847;27;20114;-60
